Pasadena — V2FA7 — position and weather

sailwx.info

Track history (hours):
 
Tides and Currents Weather Stations Pressure Air Temp Water Temp Dewpoint Dewpoint Depression Visibility Wind Speed Wind Dir Waves Ship Positions

Pasadena

Last reported at 2018-Jun-16 18:55 UTC. Time now 2018-Jun-21 00:59 UTC.
Position N 39°27' W 000°19'.

Length 90 m; draft 5 m.

Type: Cargo ship. MMSI: 304228000.

Date/timePositionNaut miles runAvg speedWind from/ knotsBaromVisibWave heightAir tempDewpointWater temp
2018-Jun-16 18:55N 39°27' W 000°19'58 9.5
2018-Jun-16 12:49N 38°39' E 000°25'910.2
2018-Jun-16 11:58N 38°32' E 000°19'5 9.9
2018-Jun-16 11:30N 38°28' E 000°15'510.0
2018-Jun-16 11:00N 38°24' E 000°12'510.2
2018-Jun-16 10:30N 38°20' E 000°08'510.2
2018-Jun-16 10:00N 38°16' E 000°05'510.2
2018-Jun-16 09:30N 38°11' E 000°01'510.1
2018-Jun-16 09:00N 38°07' W 000°02'5 9.9
2018-Jun-16 08:30N 38°03' W 000°06'5 9.9
2018-Jun-16 08:00N 37°59' W 000°09'5 9.8
2018-Jun-16 07:30N 37°55' W 000°13'5 9.6
2018-Jun-16 07:00N 37°51' W 000°16'6 9.6
2018-Jun-16 06:24N 37°46' W 000°20'4 9.8
2018-Jun-16 06:00N 37°43' W 000°23'9 9.7
2018-Jun-16 05:05N 37°35' W 000°29'1 9.8
2018-Jun-16 05:00N 37°35' W 000°30'8 9.9
2018-Jun-16 04:12N 37°29' W 000°36'410.1
2018-Jun-16 03:51N 37°27' W 000°40'310.0
2018-Jun-16 03:30N 37°24' W 000°43'510.1
2018-Jun-16 03:00N 37°21' W 000°48'510.0
2018-Jun-16 02:28N 37°17' W 000°53'22410.0
2018-Jun-15 04:07N 35°57' W 005°13'210.3
2018-Jun-15 03:55N 35°56' W 005°15'3 8.6
2018-Jun-15 03:30N 35°54' W 005°19'0 0.8
2018-Jun-15 03:00N 35°54' W 005°18'0 0.0
2018-Jun-15 02:30N 35°54' W 005°18'0 0.0
2018-Jun-15 02:00N 35°54' W 005°18'0 0.0
2018-Jun-15 01:30N 35°54' W 005°18'0 0.0
2018-Jun-15 01:00N 35°54' W 005°18'0 0.0
2018-Jun-15 00:30N 35°54' W 005°18'0 0.0
2018-Jun-15 00:00N 35°54' W 005°18'0 0.2
2018-Jun-14 23:30N 35°54' W 005°18'1 2.9
2018-Jun-14 23:00N 35°55' W 005°19'3 6.5
2018-Jun-14 22:30N 35°57' W 005°23'213 8.2
2018-Jun-13 20:27N 37°37' W 009°17'511.0
2018-Jun-13 20:01N 37°41' W 009°15'611.0
2018-Jun-13 19:30N 37°46' W 009°12'510.4
2018-Jun-13 19:00N 37°51' W 009°09'510.4
2018-Jun-13 18:30N 37°56' W 009°07'510.3
2018-Jun-13 18:01N 38°01' W 009°05'510.5
2018-Jun-13 17:30N 38°06' W 009°03'510.4
2018-Jun-13 17:00N 38°11' W 009°02'510.5
2018-Jun-13 16:30N 38°16' W 009°01'510.4
2018-Jun-13 16:00N 38°21' W 009°00'510.0
2018-Jun-13 15:30N 38°26' W 008°59'4 0.2
2018-Jun-12 17:03N 38°29' W 008°56'1 7.3
2018-Jun-12 16:51N 38°28' W 008°57'3 8.0
2018-Jun-12 16:26N 38°26' W 009°01'  
2018-Jun-08 11:07N 50°42' E 000°41'211.2
2018-Jun-08 10:59N 50°43' E 000°43'1610.8
2018-Jun-08 09:29N 50°52' E 001°04'510.1
2018-Jun-08 08:59N 50°55' E 001°10'8 9.4
2018-Jun-08 08:12N 51°00' E 001°19'6 8.4
2018-Jun-08 07:26N 51°04' E 001°27'9 8.6
2018-Jun-08 06:22N 51°10' E 001°38'5 8.8
2018-Jun-08 05:45N 51°13' E 001°45'3 9.3
2018-Jun-08 05:26N 51°16' E 001°47'5 9.8
2018-Jun-08 04:56N 51°20' E 001°51'410.4
2018-Jun-08 04:31N 51°24' E 001°55'10710.0
2018-Jun-07 17:49N 52°47' E 003°45'310.6
2018-Jun-07 17:29N 52°49' E 003°48'510.7
2018-Jun-07 16:59N 52°54' E 003°54'610.9
2018-Jun-07 16:25N 52°58' E 004°01'511.0
2018-Jun-07 16:00N 53°01' E 004°07'32 9.8
2018-Jun-07 12:43N 53°27' E 004°38'154 9.6
2018-Jun-06 20:39N 53°51' E 008°55'212.6
2018-Jun-06 20:30N 53°51' E 008°58'611.5
2018-Jun-06 20:00N 53°53' E 009°07'5 9.7
2018-Jun-06 19:30N 53°53' E 009°15'5 9.4
2018-Jun-06 19:00N 53°50' E 009°22'  
Track history (hours):
 
Tides and Currents Weather Stations Pressure Air Temp Water Temp Dewpoint Dewpoint Depression Visibility Wind Speed Wind Dir Waves Ship Positions

Pasadena

Last reported at 2018-Jun-16 18:55 UTC. Time now 2018-Jun-21 00:59 UTC.
Position N 39°27' W 000°19'.

Length 90 m; draft 5 m.

Type: Cargo ship. MMSI: 304228000.

Date/timePositionNaut miles runAvg speedWind from/ knotsBaromVisibWave heightAir tempDewpointWater temp
2018-Jun-16 18:55N 39°27' W 000°19'58 9.5
2018-Jun-16 12:49N 38°39' E 000°25'910.2
2018-Jun-16 11:58N 38°32' E 000°19'5 9.9
2018-Jun-16 11:30N 38°28' E 000°15'510.0
2018-Jun-16 11:00N 38°24' E 000°12'510.2
2018-Jun-16 10:30N 38°20' E 000°08'510.2
2018-Jun-16 10:00N 38°16' E 000°05'510.2
2018-Jun-16 09:30N 38°11' E 000°01'510.1
2018-Jun-16 09:00N 38°07' W 000°02'5 9.9
2018-Jun-16 08:30N 38°03' W 000°06'5 9.9
2018-Jun-16 08:00N 37°59' W 000°09'5 9.8
2018-Jun-16 07:30N 37°55' W 000°13'5 9.6
2018-Jun-16 07:00N 37°51' W 000°16'6 9.6
2018-Jun-16 06:24N 37°46' W 000°20'4 9.8
2018-Jun-16 06:00N 37°43' W 000°23'9 9.7
2018-Jun-16 05:05N 37°35' W 000°29'1 9.8
2018-Jun-16 05:00N 37°35' W 000°30'8 9.9
2018-Jun-16 04:12N 37°29' W 000°36'410.1
2018-Jun-16 03:51N 37°27' W 000°40'310.0
2018-Jun-16 03:30N 37°24' W 000°43'510.1
2018-Jun-16 03:00N 37°21' W 000°48'510.0
2018-Jun-16 02:28N 37°17' W 000°53'22410.0
2018-Jun-15 04:07N 35°57' W 005°13'210.3
2018-Jun-15 03:55N 35°56' W 005°15'3 8.6
2018-Jun-15 03:30N 35°54' W 005°19'0 0.8
2018-Jun-15 03:00N 35°54' W 005°18'0 0.0
2018-Jun-15 02:30N 35°54' W 005°18'0 0.0
2018-Jun-15 02:00N 35°54' W 005°18'0 0.0
2018-Jun-15 01:30N 35°54' W 005°18'0 0.0
2018-Jun-15 01:00N 35°54' W 005°18'0 0.0
2018-Jun-15 00:30N 35°54' W 005°18'0 0.0
2018-Jun-15 00:00N 35°54' W 005°18'0 0.2
2018-Jun-14 23:30N 35°54' W 005°18'1 2.9
2018-Jun-14 23:00N 35°55' W 005°19'3 6.5
2018-Jun-14 22:30N 35°57' W 005°23'213 8.2
2018-Jun-13 20:27N 37°37' W 009°17'511.0
2018-Jun-13 20:01N 37°41' W 009°15'611.0
2018-Jun-13 19:30N 37°46' W 009°12'510.4
2018-Jun-13 19:00N 37°51' W 009°09'510.4
2018-Jun-13 18:30N 37°56' W 009°07'510.3
2018-Jun-13 18:01N 38°01' W 009°05'510.5
2018-Jun-13 17:30N 38°06' W 009°03'510.4
2018-Jun-13 17:00N 38°11' W 009°02'510.5
2018-Jun-13 16:30N 38°16' W 009°01'510.4
2018-Jun-13 16:00N 38°21' W 009°00'510.0
2018-Jun-13 15:30N 38°26' W 008°59'4 0.2
2018-Jun-12 17:03N 38°29' W 008°56'1 7.3
2018-Jun-12 16:51N 38°28' W 008°57'3 8.0
2018-Jun-12 16:26N 38°26' W 009°01'  
2018-Jun-08 11:07N 50°42' E 000°41'211.2
2018-Jun-08 10:59N 50°43' E 000°43'1610.8
2018-Jun-08 09:29N 50°52' E 001°04'510.1
2018-Jun-08 08:59N 50°55' E 001°10'8 9.4
2018-Jun-08 08:12N 51°00' E 001°19'6 8.4
2018-Jun-08 07:26N 51°04' E 001°27'9 8.6
2018-Jun-08 06:22N 51°10' E 001°38'5 8.8
2018-Jun-08 05:45N 51°13' E 001°45'3 9.3
2018-Jun-08 05:26N 51°16' E 001°47'5 9.8
2018-Jun-08 04:56N 51°20' E 001°51'410.4
2018-Jun-08 04:31N 51°24' E 001°55'10710.0
2018-Jun-07 17:49N 52°47' E 003°45'310.6
2018-Jun-07 17:29N 52°49' E 003°48'510.7
2018-Jun-07 16:59N 52°54' E 003°54'610.9
2018-Jun-07 16:25N 52°58' E 004°01'511.0
2018-Jun-07 16:00N 53°01' E 004°07'32 9.8
2018-Jun-07 12:43N 53°27' E 004°38'154 9.6
2018-Jun-06 20:39N 53°51' E 008°55'212.6
2018-Jun-06 20:30N 53°51' E 008°58'611.5
2018-Jun-06 20:00N 53°53' E 009°07'5 9.7
2018-Jun-06 19:30N 53°53' E 009°15'5 9.4
2018-Jun-06 19:00N 53°50' E 009°22'  

Dump ship's entire track history